createdAt,value
2018-05-07T00:00:36.270Z,62.49
2018-05-07T00:03:03.682Z,62.61
2018-05-07T00:05:31.090Z,62.53
2018-05-07T00:07:58.504Z,64.93
2018-05-07T00:10:25.911Z,63.32
2018-05-07T00:12:53.324Z,63.62
2018-05-07T00:15:20.722Z,63.88
2018-05-07T00:17:48.123Z,65.03
2018-05-07T00:20:15.539Z,65.28
2018-05-07T00:22:42.949Z,66.21
2018-05-07T00:25:10.391Z,65.21
2018-05-07T00:27:37.815Z,66.34
2018-05-07T00:30:05.224Z,66.23
2018-05-07T00:32:32.646Z,66.73
2018-05-07T00:35:00.052Z,67.51
2018-05-07T00:37:27.447Z,66.70
2018-05-07T00:39:54.843Z,66.39
2018-05-07T00:42:22.402Z,66.07
2018-05-07T00:44:49.804Z,66.19
2018-05-07T00:47:17.209Z,66.26
2018-05-07T00:49:44.933Z,66.28
2018-05-07T00:52:12.304Z,66.23
2018-05-07T00:54:51.630Z,66.45
2018-05-07T00:57:19.049Z,67.12
2018-05-07T00:59:46.453Z,66.91
2018-05-07T01:02:13.875Z,66.92
2018-05-07T01:04:41.280Z,67.51
2018-05-07T01:07:08.691Z,67.65
2018-05-07T01:09:36.096Z,67.40
2018-05-07T01:12:03.495Z,67.32
2018-05-07T01:14:30.910Z,68.40
2018-05-07T01:16:58.308Z,68.09
2018-05-07T01:19:25.723Z,67.39
2018-05-07T01:21:53.137Z,67.09
2018-05-07T01:24:20.555Z,67.50
2018-05-07T01:26:47.951Z,68.09
2018-05-07T01:29:15.348Z,67.77
2018-05-07T01:31:42.760Z,67.84
2018-05-07T01:34:10.169Z,68.21
2018-05-07T01:36:37.602Z,68.22
2018-05-07T01:39:05.059Z,67.42
2018-05-07T01:41:32.489Z,67.04
2018-05-07T01:43:59.908Z,66.66
2018-05-07T01:46:27.343Z,66.69
2018-05-07T01:48:54.763Z,66.01
2018-05-07T01:51:22.188Z,65.90
2018-05-07T01:53:49.601Z,66.31
2018-05-07T01:56:17.015Z,66.21
2018-05-07T01:58:44.424Z,66.97
2018-05-07T02:01:11.832Z,66.62
2018-05-07T02:03:39.247Z,66.24
2018-05-07T02:06:06.728Z,65.99
2018-05-07T02:08:34.136Z,65.94
2018-05-07T02:11:01.537Z,66.52
2018-05-07T02:13:28.956Z,66.93
2018-05-07T02:15:56.356Z,68.94
2018-05-07T02:18:23.776Z,69.34
2018-05-07T02:20:51.196Z,68.50
2018-05-07T02:23:18.601Z,68.17
2018-05-07T02:25:46.019Z,69.03
2018-05-07T02:28:13.744Z,67.92
2018-05-07T02:30:41.159Z,68.08
2018-05-07T02:33:08.561Z,68.06
2018-05-07T02:35:36.004Z,68.27
2018-05-07T02:38:03.419Z,68.17
2018-05-07T02:40:30.832Z,68.21
2018-05-07T02:42:58.257Z,68.33
2018-05-07T02:45:25.692Z,68.17
2018-05-07T02:47:53.104Z,69.89
2018-05-07T02:50:20.531Z,69.59
2018-05-07T02:52:47.949Z,69.43
2018-05-07T02:55:15.364Z,69.00
2018-05-07T02:57:42.771Z,70.10
2018-05-07T03:00:10.185Z,70.42
2018-05-07T03:02:37.595Z,71.07
2018-05-07T03:05:05.014Z,71.76
2018-05-07T03:07:32.428Z,71.42
2018-05-07T03:09:59.852Z,70.81
2018-05-07T03:12:27.255Z,71.46
2018-05-07T03:14:54.681Z,71.09
2018-05-07T03:17:22.096Z,71.44
2018-05-07T03:19:49.513Z,71.25
2018-05-07T03:22:16.933Z,71.86
2018-05-07T03:24:44.438Z,71.68
2018-05-07T03:27:11.773Z,72.53
2018-05-07T03:29:39.180Z,71.66
2018-05-07T03:32:06.599Z,71.18
2018-05-07T03:34:34.021Z,70.79
2018-05-07T03:37:01.459Z,70.39
2018-05-07T03:39:28.872Z,70.21
2018-05-07T03:41:56.303Z,70.07
2018-05-07T03:44:23.735Z,69.78
2018-05-07T03:46:51.155Z,69.53
2018-05-07T03:49:18.586Z,69.13
2018-05-07T03:51:46.265Z,69.38
2018-05-07T03:54:13.702Z,69.63
2018-05-07T03:56:41.141Z,69.45
2018-05-07T03:59:08.548Z,69.32
2018-05-07T04:01:35.972Z,69.25
2018-05-07T04:04:03.396Z,69.34
2018-05-07T04:06:30.819Z,69.50
2018-05-07T04:08:58.419Z,69.17
2018-05-07T04:11:25.812Z,69.04
2018-05-07T04:13:53.235Z,68.77
2018-05-07T04:16:32.421Z,68.69
2018-05-07T04:19:11.555Z,68.32
2018-05-07T04:21:38.956Z,68.14
2018-05-07T04:24:07.185Z,67.93
2018-05-07T04:26:34.588Z,68.11
2018-05-07T04:29:02.012Z,68.67
2018-05-07T04:31:29.417Z,68.06
2018-05-07T04:33:56.847Z,67.34
2018-05-07T04:36:24.248Z,66.14
2018-05-07T04:38:51.657Z,64.04
2018-05-07T04:41:19.077Z,61.37
2018-05-07T04:43:46.588Z,58.92
2018-05-07T04:46:14.012Z,56.13
2018-05-07T04:48:41.423Z,55.57
2018-05-07T04:51:08.873Z,52.33
2018-05-07T04:53:36.321Z,52.70
2018-05-07T04:56:03.717Z,51.47
2018-05-07T04:58:31.148Z,48.96
2018-05-07T05:00:58.559Z,48.41
2018-05-07T05:03:25.955Z,48.56
2018-05-07T05:05:53.375Z,47.36
2018-05-07T05:08:20.816Z,45.87
2018-05-07T05:10:48.283Z,43.14
2018-05-07T05:13:15.676Z,41.45
2018-05-07T05:15:43.079Z,39.80
2018-05-07T05:18:10.519Z,38.72
2018-05-07T05:20:37.912Z,36.63
2018-05-07T05:23:05.348Z,35.90
2018-05-07T05:25:32.989Z,36.82
2018-05-07T05:28:00.391Z,36.03
2018-05-07T05:30:27.832Z,35.78
2018-05-07T05:32:55.242Z,36.00
2018-05-07T05:35:22.644Z,33.91
2018-05-07T05:37:50.085Z,35.82
2018-05-07T05:40:17.496Z,33.82
2018-05-07T05:42:44.892Z,35.41
2018-05-07T05:45:12.323Z,33.85
2018-05-07T05:47:39.757Z,35.75
2018-05-07T05:50:07.279Z,34.05
2018-05-07T05:52:34.580Z,35.43
2018-05-07T05:55:02.005Z,33.29
2018-05-07T05:57:29.410Z,34.98
2018-05-07T05:59:56.851Z,33.79
2018-05-07T06:02:24.252Z,33.39
2018-05-07T06:04:51.697Z,33.32
2018-05-07T06:07:19.105Z,33.98
2018-05-07T06:09:46.513Z,34.63
2018-05-07T06:12:13.938Z,34.59
2018-05-07T06:14:41.398Z,32.58
2018-05-07T06:17:08.763Z,33.15
2018-05-07T06:19:36.194Z,32.77
2018-05-07T06:22:03.630Z,32.86
2018-05-07T06:24:31.024Z,33.35
2018-05-07T06:26:58.428Z,32.04
2018-05-07T06:29:25.852Z,31.77
2018-05-07T06:31:53.256Z,32.01
2018-05-07T06:34:20.749Z,32.05
2018-05-07T06:36:48.076Z,30.59
2018-05-07T06:39:15.499Z,32.14
2018-05-07T06:41:42.904Z,32.28
2018-05-07T06:44:10.332Z,32.31
2018-05-07T06:46:37.734Z,31.81
2018-05-07T06:49:05.148Z,31.67
2018-05-07T06:51:32.560Z,31.22
2018-05-07T06:53:59.980Z,30.93
2018-05-07T06:56:27.397Z,30.13
2018-05-07T06:58:54.811Z,30.49
2018-05-07T07:01:22.215Z,30.94
2018-05-07T07:03:49.620Z,30.65
2018-05-07T07:06:17.101Z,30.88
2018-05-07T07:08:44.513Z,31.02
2018-05-07T07:11:11.928Z,31.81
2018-05-07T07:13:39.340Z,32.06
2018-05-07T07:16:06.748Z,32.31
2018-05-07T07:18:34.227Z,31.36
2018-05-07T07:21:01.636Z,31.40
2018-05-07T07:23:29.047Z,31.12
2018-05-07T07:25:56.468Z,31.89
2018-05-07T07:28:23.889Z,32.04
2018-05-07T07:30:51.336Z,31.51
2018-05-07T07:33:18.762Z,32.14
2018-05-07T07:35:46.180Z,32.03
2018-05-07T07:38:13.584Z,31.64
2018-05-07T07:40:41.064Z,31.69
2018-05-07T07:43:08.480Z,30.63
2018-05-07T07:45:35.887Z,30.50
2018-05-07T07:48:03.319Z,31.51
2018-05-07T07:50:30.763Z,31.50
2018-05-07T07:52:58.184Z,31.43
2018-05-07T07:55:25.589Z,31.56
2018-05-07T07:57:53.019Z,31.64
2018-05-07T08:00:20.421Z,31.34
2018-05-07T08:02:47.840Z,31.90
2018-05-07T08:05:15.253Z,31.01
2018-05-07T08:07:42.671Z,30.78
2018-05-07T08:10:10.072Z,30.72
2018-05-07T08:12:37.472Z,30.80
2018-05-07T08:15:04.888Z,29.86
2018-05-07T08:17:32.291Z,30.52
2018-05-07T08:20:00.028Z,31.75
2018-05-07T08:22:27.427Z,31.54
2018-05-07T08:24:54.836Z,31.68
2018-05-07T08:27:22.251Z,30.90
2018-05-07T08:29:49.652Z,31.28
2018-05-07T08:32:17.075Z,30.69
2018-05-07T08:34:44.484Z,31.30
2018-05-07T08:37:11.908Z,31.45
2018-05-07T08:39:39.310Z,31.57
2018-05-07T08:42:06.724Z,31.91
2018-05-07T08:44:34.434Z,32.37
2018-05-07T08:47:02.253Z,31.76
2018-05-07T08:49:29.649Z,32.59
2018-05-07T08:51:57.055Z,32.82
2018-05-07T08:54:24.490Z,33.90
2018-05-07T08:56:51.897Z,34.54
2018-05-07T08:59:19.619Z,33.66
2018-05-07T09:01:47.141Z,33.47
2018-05-07T09:04:14.487Z,32.83
2018-05-07T09:06:41.889Z,33.06
2018-05-07T09:09:09.292Z,32.65
2018-05-07T09:11:36.720Z,32.27
2018-05-07T09:14:04.128Z,33.88
2018-05-07T09:16:31.568Z,31.86
2018-05-07T09:18:58.972Z,32.01
2018-05-07T09:21:26.392Z,31.70
2018-05-07T09:23:53.799Z,30.81
2018-05-07T09:26:21.246Z,30.14
2018-05-07T09:28:48.666Z,29.73
2018-05-07T09:31:16.063Z,29.74
2018-05-07T09:33:43.473Z,29.78
2018-05-07T09:36:10.874Z,29.71
2018-05-07T09:38:38.280Z,29.62
2018-05-07T09:41:05.840Z,30.56
2018-05-07T09:43:33.247Z,29.48
2018-05-07T09:46:00.648Z,29.26
2018-05-07T09:48:28.065Z,28.85
2018-05-07T09:50:55.464Z,29.26
2018-05-07T09:53:22.863Z,29.21
2018-05-07T09:55:50.283Z,29.94
2018-05-07T09:58:17.687Z,30.93
2018-05-07T10:00:45.521Z,31.19
2018-05-07T10:03:12.932Z,31.25
2018-05-07T10:05:40.373Z,31.45
2018-05-07T10:08:07.792Z,32.02
2018-05-07T10:10:35.204Z,31.68
2018-05-07T10:13:02.687Z,32.74
2018-05-07T10:15:30.101Z,31.97
2018-05-07T10:17:57.527Z,32.57
2018-05-07T10:20:25.017Z,32.40
2018-05-07T10:22:52.486Z,32.72
2018-05-07T10:25:19.909Z,32.05
2018-05-07T10:27:47.314Z,32.62
2018-05-07T10:30:14.736Z,31.79
2018-05-07T10:32:42.138Z,32.25
2018-05-07T10:35:09.552Z,32.96
2018-05-07T10:37:36.960Z,33.91
2018-05-07T10:40:04.389Z,34.42
2018-05-07T10:42:31.819Z,33.69
2018-05-07T10:44:59.235Z,32.65
2018-05-07T10:47:26.653Z,32.51
2018-05-07T10:49:54.063Z,32.61
2018-05-07T10:52:21.484Z,32.23
2018-05-07T10:54:48.886Z,32.18
2018-05-07T10:57:16.284Z,32.25
2018-05-07T10:59:43.695Z,32.07
2018-05-07T11:02:11.105Z,31.20
2018-05-07T11:04:38.514Z,30.38
2018-05-07T11:07:05.924Z,31.13
2018-05-07T11:09:33.335Z,30.36
2018-05-07T11:12:00.791Z,30.28
2018-05-07T11:14:28.280Z,30.50
2018-05-07T11:16:55.668Z,29.13
2018-05-07T11:19:23.079Z,28.34
2018-05-07T11:21:50.479Z,30.48
2018-05-07T11:24:17.905Z,30.64
2018-05-07T11:26:45.312Z,30.56
2018-05-07T11:29:12.740Z,31.62
2018-05-07T11:31:40.157Z,32.38
2018-05-07T11:34:07.634Z,30.88
2018-05-07T11:36:35.034Z,30.99
2018-05-07T11:39:02.510Z,28.62
2018-05-07T11:41:29.883Z,30.47
2018-05-07T11:43:57.306Z,30.15
2018-05-07T11:46:24.721Z,31.32
2018-05-07T11:48:52.145Z,30.67
2018-05-07T11:51:19.551Z,30.46
2018-05-07T11:53:46.984Z,30.94
2018-05-07T11:56:14.405Z,30.82
2018-05-07T11:58:41.817Z,30.65
2018-05-07T12:01:09.237Z,30.28
2018-05-07T12:03:36.646Z,30.73
2018-05-07T12:06:04.068Z,30.38
2018-05-07T12:08:31.507Z,30.24
2018-05-07T12:10:58.957Z,30.44
2018-05-07T12:13:26.365Z,30.07
2018-05-07T12:15:53.866Z,30.77
2018-05-07T12:18:21.252Z,30.70
2018-05-07T12:20:48.659Z,31.13
2018-05-07T12:23:16.142Z,31.91
2018-05-07T12:25:43.526Z,31.63
2018-05-07T12:28:10.912Z,31.77
2018-05-07T12:30:38.308Z,32.62
2018-05-07T12:33:05.732Z,32.69
2018-05-07T12:35:33.139Z,33.30
2018-05-07T12:38:00.571Z,34.05
2018-05-07T12:40:28.396Z,32.55
2018-05-07T12:42:55.808Z,31.98
2018-05-07T12:45:23.233Z,31.85
2018-05-07T12:47:50.637Z,32.36
2018-05-07T12:50:18.048Z,32.51
2018-05-07T12:52:45.557Z,32.48
2018-05-07T12:55:12.866Z,32.49
2018-05-07T12:57:40.268Z,33.30
2018-05-07T13:00:07.687Z,32.56
2018-05-07T13:02:35.084Z,31.80
2018-05-07T13:05:02.514Z,31.76
2018-05-07T13:07:29.931Z,31.76
2018-05-07T13:09:57.344Z,31.83
2018-05-07T13:12:24.755Z,31.59
2018-05-07T13:14:52.175Z,31.57
2018-05-07T13:17:19.936Z,32.12
2018-05-07T13:19:47.360Z,31.99
2018-05-07T13:22:14.771Z,31.53
2018-05-07T13:24:42.192Z,31.84
2018-05-07T13:27:09.605Z,30.78
2018-05-07T13:29:37.079Z,30.64
2018-05-07T13:32:04.508Z,31.42
2018-05-07T13:34:31.924Z,30.47
2018-05-07T13:36:59.399Z,29.97
2018-05-07T13:39:27.575Z,29.97
2018-05-07T13:41:54.985Z,30.54
2018-05-07T13:44:22.411Z,30.25
2018-05-07T13:46:49.881Z,29.44
2018-05-07T13:49:17.279Z,30.24
2018-05-07T13:51:44.683Z,29.11
2018-05-07T13:54:12.096Z,28.34
2018-05-07T13:56:39.496Z,28.46
2018-05-07T13:59:06.939Z,28.53
2018-05-07T14:01:34.341Z,28.57
2018-05-07T14:04:01.752Z,28.57
2018-05-07T14:06:29.151Z,29.11
2018-05-07T14:08:56.567Z,28.92
2018-05-07T14:11:23.967Z,28.40
2018-05-07T14:13:51.372Z,29.10
2018-05-07T14:16:18.794Z,29.42
2018-05-07T14:18:46.195Z,29.13
2018-05-07T14:21:13.638Z,29.50
2018-05-07T14:23:41.047Z,31.34
2018-05-07T14:26:08.467Z,32.08
2018-05-07T14:28:35.866Z,31.94
2018-05-07T14:31:03.274Z,31.53
2018-05-07T14:33:30.709Z,31.09
2018-05-07T14:35:58.103Z,31.47
2018-05-07T14:38:25.563Z,30.35
2018-05-07T14:40:52.972Z,30.92
2018-05-07T14:43:20.384Z,29.42
2018-05-07T14:45:47.834Z,31.11
2018-05-07T14:48:15.575Z,31.90
2018-05-07T14:50:43.161Z,32.08
2018-05-07T14:53:10.559Z,32.19
2018-05-07T14:55:37.977Z,32.52
2018-05-07T14:58:05.379Z,32.58
2018-05-07T15:00:32.801Z,32.71
2018-05-07T15:03:00.209Z,32.76
2018-05-07T15:05:27.669Z,32.42
2018-05-07T15:07:55.053Z,32.40
2018-05-07T15:10:22.505Z,31.46
2018-05-07T15:12:49.884Z,31.92
2018-05-07T15:15:17.300Z,32.44
2018-05-07T15:17:44.720Z,32.56
2018-05-07T15:20:12.140Z,32.63
2018-05-07T15:22:39.544Z,32.50
2018-05-07T15:25:06.956Z,33.02
2018-05-07T15:27:34.360Z,33.43
2018-05-07T15:30:01.876Z,33.64
2018-05-07T15:32:29.272Z,33.75
2018-05-07T15:34:56.981Z,33.12
2018-05-07T15:37:24.385Z,33.43
2018-05-07T15:39:51.794Z,33.23
2018-05-07T15:42:19.207Z,32.80
2018-05-07T15:44:46.640Z,32.73
2018-05-07T15:47:14.058Z,32.70
2018-05-07T15:49:41.466Z,33.04
2018-05-07T15:52:08.885Z,33.67
2018-05-07T15:54:36.292Z,33.64
2018-05-07T15:57:03.719Z,33.79
2018-05-07T15:59:31.119Z,33.54
2018-05-07T16:01:58.547Z,33.81
2018-05-07T16:04:25.961Z,33.61
2018-05-07T16:06:53.380Z,33.42
2018-05-07T16:09:20.800Z,33.65
2018-05-07T16:11:48.207Z,33.66
2018-05-07T16:14:15.619Z,33.37
2018-05-07T16:16:43.031Z,33.14
2018-05-07T16:19:10.435Z,33.44
2018-05-07T16:21:38.267Z,33.58
2018-05-07T16:24:05.651Z,33.23
2018-05-07T16:26:33.100Z,33.49
2018-05-07T16:29:00.468Z,33.44
2018-05-07T16:31:27.871Z,33.37
2018-05-07T16:33:55.288Z,33.84
2018-05-07T16:36:22.685Z,33.22
2018-05-07T16:38:50.111Z,33.61
2018-05-07T16:41:17.507Z,33.82
2018-05-07T16:43:44.932Z,33.75
2018-05-07T16:46:12.348Z,33.63
2018-05-07T16:48:39.811Z,33.50
2018-05-07T16:51:07.177Z,33.81
2018-05-07T16:53:34.600Z,33.63
2018-05-07T16:56:02.020Z,33.77
2018-05-07T16:58:29.430Z,33.97
2018-05-07T17:00:56.862Z,34.14
2018-05-07T17:03:24.264Z,34.30
2018-05-07T17:05:51.681Z,34.42
2018-05-07T17:08:19.170Z,34.77
2018-05-07T17:10:46.508Z,34.85
2018-05-07T17:13:13.911Z,34.73
2018-05-07T17:15:41.314Z,34.88
2018-05-07T17:18:08.723Z,34.70
2018-05-07T17:20:36.139Z,34.89
2018-05-07T17:23:03.552Z,34.97
2018-05-07T17:25:30.959Z,34.98
2018-05-07T17:27:58.360Z,35.13
2018-05-07T17:30:25.780Z,35.00
2018-05-07T17:32:53.200Z,34.87
2018-05-07T17:35:20.628Z,35.08
2018-05-07T17:37:48.049Z,35.23
2018-05-07T17:40:15.464Z,35.21
2018-05-07T17:42:42.886Z,35.49
2018-05-07T17:45:26.080Z,35.65
2018-05-07T17:48:05.386Z,36.20
2018-05-07T17:50:32.778Z,36.40
2018-05-07T17:53:00.221Z,36.35
2018-05-07T17:55:27.612Z,35.82
2018-05-07T17:57:55.048Z,36.36
2018-05-07T18:00:22.456Z,36.31
2018-05-07T18:02:49.925Z,36.46
2018-05-07T18:05:17.460Z,36.47
2018-05-07T18:07:44.886Z,36.56
2018-05-07T18:10:12.400Z,36.46
2018-05-07T18:12:41.798Z,36.64
2018-05-07T18:15:10.115Z,36.59
2018-05-07T18:17:37.586Z,36.77
2018-05-07T18:20:05.147Z,36.84
2018-05-07T18:22:32.581Z,36.63
2018-05-07T18:24:59.979Z,36.63
2018-05-07T18:27:27.421Z,36.93
2018-05-07T18:29:54.828Z,36.97
2018-05-07T18:32:22.376Z,37.16
2018-05-07T18:34:49.747Z,37.02
2018-05-07T18:37:18.286Z,37.16
2018-05-07T18:39:45.755Z,37.37
2018-05-07T18:42:13.165Z,37.44
2018-05-07T18:44:40.585Z,37.41
2018-05-07T18:47:07.984Z,37.64
2018-05-07T18:49:35.560Z,37.81
2018-05-07T18:52:03.109Z,37.93
2018-05-07T18:54:30.585Z,37.99
2018-05-07T18:56:57.998Z,38.27
2018-05-07T18:59:25.447Z,38.15
2018-05-07T19:01:52.886Z,38.22
2018-05-07T19:04:20.290Z,38.46
2018-05-07T19:06:48.748Z,38.43
2018-05-07T19:09:16.171Z,38.50
2018-05-07T19:11:43.865Z,38.61
2018-05-07T19:14:11.284Z,38.75
2018-05-07T19:16:38.666Z,38.82
2018-05-07T19:19:06.137Z,38.98
2018-05-07T19:21:33.567Z,39.12
2018-05-07T19:24:00.982Z,39.55
2018-05-07T19:26:29.012Z,39.60
2018-05-07T19:28:56.484Z,39.55
2018-05-07T19:31:23.885Z,39.87
2018-05-07T19:33:51.275Z,39.91
2018-05-07T19:36:18.695Z,39.89
2018-05-07T19:38:46.106Z,39.86
2018-05-07T19:41:14.512Z,40.02
2018-05-07T19:43:42.376Z,39.95
2018-05-07T19:46:09.779Z,40.13
2018-05-07T19:48:37.444Z,40.16
2018-05-07T19:51:04.852Z,40.22
2018-05-07T19:53:32.299Z,40.31
2018-05-07T19:55:59.763Z,40.44
2018-05-07T19:58:27.156Z,40.62
2018-05-07T20:00:54.564Z,40.90
2018-05-07T20:03:21.979Z,41.10
2018-05-07T20:05:49.406Z,41.43
2018-05-07T20:08:16.805Z,41.72
2018-05-07T20:10:44.196Z,41.68
2018-05-07T20:13:11.610Z,41.81
2018-05-07T20:15:39.192Z,41.82
2018-05-07T20:18:06.786Z,41.89
2018-05-07T20:20:34.245Z,42.10
2018-05-07T20:23:01.848Z,43.00
2018-05-07T20:25:29.739Z,42.58
2018-05-07T20:27:57.496Z,42.92
2018-05-07T20:30:24.931Z,43.21
2018-05-07T20:32:52.630Z,43.48
2018-05-07T20:35:20.448Z,43.67
2018-05-07T20:37:47.925Z,44.04
2018-05-07T20:40:15.827Z,43.79
2018-05-07T20:42:43.205Z,44.11
2018-05-07T20:45:10.852Z,43.88
2018-05-07T20:47:38.574Z,43.97
2018-05-07T20:50:06.294Z,43.78
2018-05-07T20:52:33.840Z,44.01
2018-05-07T20:55:01.305Z,43.84
2018-05-07T20:57:29.705Z,43.93
2018-05-07T20:59:57.143Z,44.05
2018-05-07T21:02:24.591Z,44.19
2018-05-07T21:04:52.075Z,44.27
2018-05-07T21:07:19.484Z,44.73
2018-05-07T21:09:46.898Z,44.96
2018-05-07T21:12:14.387Z,45.23
2018-05-07T21:14:41.827Z,45.95
2018-05-07T21:17:09.291Z,45.66
2018-05-07T21:19:36.719Z,45.90
2018-05-07T21:22:04.167Z,46.12
2018-05-07T21:24:31.579Z,46.08
2018-05-07T21:26:58.992Z,45.95
2018-05-07T21:29:26.417Z,46.20
2018-05-07T21:31:53.831Z,46.11
2018-05-07T21:34:21.236Z,46.19
2018-05-07T21:36:48.647Z,46.46
2018-05-07T21:39:16.048Z,48.16
2018-05-07T21:41:43.512Z,48.15
2018-05-07T21:44:10.912Z,48.35
2018-05-07T21:46:38.328Z,48.68
2018-05-07T21:49:05.740Z,48.66
2018-05-07T21:51:33.151Z,50.93
2018-05-07T21:54:00.564Z,49.32
2018-05-07T21:56:28.051Z,49.80
2018-05-07T21:58:55.788Z,49.45
2018-05-07T22:01:23.181Z,49.60
2018-05-07T22:03:50.579Z,49.24
2018-05-07T22:06:17.984Z,49.58
2018-05-07T22:08:45.387Z,49.76
2018-05-07T22:11:12.800Z,49.51
2018-05-07T22:13:40.206Z,50.09
2018-05-07T22:16:07.618Z,50.95
2018-05-07T22:18:35.020Z,50.86
2018-05-07T22:21:02.440Z,51.83
2018-05-07T22:23:29.839Z,51.70
2018-05-07T22:25:57.259Z,52.63
2018-05-07T22:28:24.669Z,52.56
2018-05-07T22:30:52.095Z,53.08
2018-05-07T22:33:19.516Z,53.06
2018-05-07T22:35:46.942Z,53.36
2018-05-07T22:38:14.357Z,53.27
2018-05-07T22:40:47.428Z,53.95
2018-05-07T22:43:14.833Z,53.87
2018-05-07T22:45:42.249Z,54.13
2018-05-07T22:48:09.656Z,53.09
2018-05-07T22:50:37.071Z,55.10
2018-05-07T22:53:04.481Z,54.69
2018-05-07T22:55:31.899Z,55.02
2018-05-07T22:57:59.312Z,57.22
2018-05-07T23:00:26.785Z,56.38
2018-05-07T23:02:54.171Z,56.10
2018-05-07T23:05:21.587Z,56.72
2018-05-07T23:07:49.005Z,56.54
2018-05-07T23:10:16.426Z,56.41
2018-05-07T23:12:43.828Z,57.20
2018-05-07T23:15:11.587Z,57.05
2018-05-07T23:17:38.992Z,57.06
2018-05-07T23:20:06.400Z,57.83
2018-05-07T23:22:33.849Z,59.49
2018-05-07T23:25:01.313Z,60.25
2018-05-07T23:27:28.716Z,58.88
2018-05-07T23:29:56.123Z,59.44
2018-05-07T23:32:23.531Z,58.44
2018-05-07T23:34:50.944Z,58.50
2018-05-07T23:37:18.363Z,59.20
2018-05-07T23:39:45.769Z,59.96
2018-05-07T23:42:13.199Z,59.03
2018-05-07T23:44:40.604Z,59.67
2018-05-07T23:47:08.024Z,59.96
2018-05-07T23:49:35.432Z,61.73
2018-05-07T23:52:02.856Z,60.89
2018-05-07T23:54:30.256Z,60.27
2018-05-07T23:56:57.664Z,61.28
2018-05-07T23:59:25.077Z,60.56
